createdAt,value
2022-09-11T00:01:31.171Z,81.53
2022-09-11T00:03:57.871Z,80.82
2022-09-11T00:06:29.761Z,80.68
2022-09-11T00:09:02.168Z,80.95
2022-09-11T00:11:33.676Z,82.53
2022-09-11T00:14:00.396Z,82.03
2022-09-11T00:16:34.752Z,81.12
2022-09-11T00:19:08.371Z,82.77
2022-09-11T00:21:35.106Z,82.97
2022-09-11T00:24:02.326Z,82.47
2022-09-11T00:26:28.934Z,83.25
2022-09-11T00:28:55.370Z,81.32
2022-09-11T00:31:27.853Z,81.03
2022-09-11T00:33:55.049Z,83.00
2022-09-11T00:36:24.736Z,83.60
2022-09-11T00:38:51.734Z,82.91
2022-09-11T00:41:24.273Z,82.27
2022-09-11T00:44:02.919Z,82.91
2022-09-11T00:46:48.618Z,82.44
2022-09-11T00:49:23.828Z,81.76
2022-09-11T00:51:54.265Z,82.39
2022-09-11T00:54:26.719Z,82.94
2022-09-11T00:56:56.934Z,83.81
2022-09-11T00:59:27.644Z,82.41
2022-09-11T01:01:54.466Z,82.87
2022-09-11T01:04:21.851Z,83.13
2022-09-11T01:06:49.189Z,83.17
2022-09-11T01:09:15.750Z,83.78
2022-09-11T01:11:47.896Z,83.26
2022-09-11T01:14:21.388Z,83.52
2022-09-11T01:17:15.219Z,82.38
2022-09-11T01:20:01.141Z,83.33
2022-09-11T01:22:36.570Z,83.72
2022-09-11T01:25:02.866Z,84.03
2022-09-11T01:27:58.361Z,84.16
2022-09-11T01:30:34.565Z,84.60
2022-09-11T01:33:22.835Z,84.89
2022-09-11T01:36:05.029Z,84.01
2022-09-11T01:39:00.139Z,84.29
2022-09-11T01:41:40.714Z,83.59
2022-09-11T01:44:18.589Z,81.83
2022-09-11T01:46:49.796Z,83.44
2022-09-11T01:49:35.219Z,82.74
2022-09-11T01:52:06.508Z,84.57
2022-09-11T01:54:41.925Z,85.77
2022-09-11T01:57:16.205Z,84.74
2022-09-11T01:59:55.591Z,85.27
2022-09-11T02:02:29.302Z,85.47
2022-09-11T02:05:02.910Z,84.01
2022-09-11T02:07:34.355Z,83.70
2022-09-11T02:10:07.731Z,83.21
2022-09-11T02:12:41.015Z,83.27
2022-09-11T02:15:08.342Z,83.64
2022-09-11T02:17:55.032Z,83.55
2022-09-11T02:20:21.473Z,83.25
2022-09-11T02:22:49.004Z,82.50
2022-09-11T02:25:15.820Z,83.38
2022-09-11T02:27:42.642Z,83.43
2022-09-11T02:30:09.911Z,83.58
2022-09-11T02:32:47.267Z,83.83
2022-09-11T02:35:16.217Z,84.24
2022-09-11T02:37:49.450Z,85.00
2022-09-11T02:40:45.484Z,84.75
2022-09-11T02:43:29.240Z,85.34
2022-09-11T02:46:26.843Z,85.83
2022-09-11T02:49:55.911Z,86.82
2022-09-11T02:52:31.145Z,85.58
2022-09-11T02:55:08.042Z,86.44
2022-09-11T02:58:03.366Z,86.56
2022-09-11T03:00:29.904Z,87.70
2022-09-11T03:02:56.450Z,87.15
2022-09-11T03:05:23.417Z,87.58
2022-09-11T03:07:51.022Z,87.71
2022-09-11T03:10:17.693Z,86.80
2022-09-11T03:12:44.122Z,86.64
2022-09-11T03:15:11.093Z,87.89
2022-09-11T03:17:37.530Z,88.31
2022-09-11T03:20:05.315Z,87.72
2022-09-11T03:22:31.847Z,89.24
2022-09-11T03:24:58.226Z,89.35
2022-09-11T03:27:24.698Z,88.77
2022-09-11T03:29:52.126Z,87.22
2022-09-11T03:32:18.518Z,88.00
2022-09-11T03:34:47.250Z,87.88
2022-09-11T03:37:13.616Z,87.45
2022-09-11T03:39:40.014Z,86.06
2022-09-11T03:42:06.478Z,87.61
2022-09-11T03:44:32.837Z,87.65
2022-09-11T03:47:00.217Z,86.50
2022-09-11T03:49:26.582Z,86.83
2022-09-11T03:51:53.141Z,86.42
2022-09-11T03:54:20.915Z,86.33
2022-09-11T03:56:47.285Z,87.03
2022-09-11T03:59:13.747Z,86.27
2022-09-11T04:01:40.261Z,85.78
2022-09-11T04:04:06.663Z,86.38
2022-09-11T04:06:33.077Z,87.12
2022-09-11T04:08:59.457Z,87.51
2022-09-11T04:11:25.836Z,85.44
2022-09-11T04:13:52.281Z,86.29
2022-09-11T04:16:20.097Z,87.02
2022-09-11T04:18:47.781Z,86.25
2022-09-11T04:21:16.767Z,86.74
2022-09-11T04:23:44.249Z,85.31
2022-09-11T04:26:19.074Z,85.61
2022-09-11T04:28:46.232Z,85.23
2022-09-11T04:31:13.721Z,85.51
2022-09-11T04:33:40.964Z,86.02
2022-09-11T04:36:10.030Z,85.90
2022-09-11T04:38:36.711Z,86.34
2022-09-11T04:41:04.183Z,86.15
2022-09-11T04:43:31.593Z,85.19
2022-09-11T04:46:12.845Z,85.16
2022-09-11T04:48:53.941Z,85.28
2022-09-11T04:51:23.395Z,85.63
2022-09-11T04:53:57.387Z,84.99
2022-09-11T04:56:26.086Z,86.35
2022-09-11T04:59:13.251Z,85.84
2022-09-11T05:01:39.817Z,86.03
2022-09-11T05:04:06.796Z,86.34
2022-09-11T05:06:33.186Z,86.43
2022-09-11T05:09:07.999Z,86.76
2022-09-11T05:11:34.793Z,86.21
2022-09-11T05:14:01.568Z,85.67
2022-09-11T05:16:30.229Z,86.91
2022-09-11T05:18:59.347Z,86.13
2022-09-11T05:21:27.339Z,86.23
2022-09-11T05:23:58.553Z,85.96
2022-09-11T05:26:27.275Z,85.78
2022-09-11T05:28:59.133Z,84.95
2022-09-11T05:31:26.256Z,85.78
2022-09-11T05:33:54.490Z,86.99
2022-09-11T05:36:21.085Z,86.60
2022-09-11T05:38:53.944Z,87.35
2022-09-11T05:41:20.663Z,86.75
2022-09-11T05:43:47.343Z,87.26
2022-09-11T05:46:17.688Z,86.64
2022-09-11T05:48:44.712Z,88.81
2022-09-11T05:51:13.746Z,87.73
2022-09-11T05:53:40.801Z,88.67
2022-09-11T05:56:09.252Z,88.99
2022-09-11T05:58:36.517Z,88.89
2022-09-11T06:01:05.036Z,88.35
2022-09-11T06:03:34.306Z,87.96
2022-09-11T06:06:02.309Z,87.89
2022-09-11T06:08:30.897Z,87.16
2022-09-11T06:10:58.633Z,87.52
2022-09-11T06:13:41.269Z,88.44
2022-09-11T06:16:13.408Z,89.06
2022-09-11T06:18:42.737Z,89.56
2022-09-11T06:21:12.540Z,89.32
2022-09-11T06:23:39.991Z,88.61
2022-09-11T06:26:09.020Z,88.77
2022-09-11T06:28:36.233Z,88.90
2022-09-11T06:31:07.609Z,87.82
2022-09-11T06:33:36.760Z,88.95
2022-09-11T06:36:15.021Z,89.16
2022-09-11T06:38:42.799Z,88.45
2022-09-11T06:41:13.852Z,89.90
2022-09-11T06:43:45.335Z,89.06
2022-09-11T06:46:13.368Z,88.56
2022-09-11T06:48:41.130Z,90.10
2022-09-11T06:51:11.332Z,89.77
2022-09-11T06:53:38.395Z,89.65
2022-09-11T06:56:06.859Z,90.42
2022-09-11T06:58:34.279Z,90.13
2022-09-11T07:01:09.954Z,89.08
2022-09-11T07:03:46.351Z,90.32
2022-09-11T07:06:16.258Z,90.29
2022-09-11T07:09:00.689Z,89.40
2022-09-11T07:11:27.966Z,89.25
2022-09-11T07:13:54.430Z,90.29
2022-09-11T07:16:20.892Z,90.62
2022-09-11T07:18:47.783Z,89.51
2022-09-11T07:21:18.628Z,89.35
2022-09-11T07:23:50.988Z,89.17
2022-09-11T07:26:18.431Z,87.89
2022-09-11T07:28:44.910Z,87.92
2022-09-11T07:31:20.885Z,87.54
2022-09-11T07:33:49.081Z,88.18
2022-09-11T07:36:37.777Z,86.73
2022-09-11T07:39:04.347Z,88.34
2022-09-11T07:41:31.617Z,87.40
2022-09-11T07:44:03.659Z,87.66
2022-09-11T07:46:33.320Z,88.95
2022-09-11T07:49:01.951Z,86.88
2022-09-11T07:51:28.661Z,86.78
2022-09-11T07:53:57.869Z,85.04
2022-09-11T07:56:41.134Z,84.10
2022-09-11T07:59:11.662Z,83.00
2022-09-11T08:01:38.098Z,85.09
2022-09-11T08:04:10.527Z,83.39
2022-09-11T08:06:41.376Z,83.54
2022-09-11T08:09:11.557Z,83.83
2022-09-11T08:11:41.086Z,83.35
2022-09-11T08:14:07.875Z,84.79
2022-09-11T08:16:36.243Z,84.71
2022-09-11T08:19:22.619Z,82.92
2022-09-11T08:21:50.178Z,83.66
2022-09-11T08:24:17.729Z,82.01
2022-09-11T08:26:48.712Z,83.10
2022-09-11T08:29:15.586Z,83.61
2022-09-11T08:31:42.031Z,82.98
2022-09-11T08:34:10.213Z,83.71
2022-09-11T08:36:36.747Z,83.00
2022-09-11T08:39:09.136Z,82.55
2022-09-11T08:41:53.662Z,81.07
2022-09-11T08:44:23.942Z,83.48
2022-09-11T08:47:06.549Z,82.67
2022-09-11T08:49:42.937Z,82.62
2022-09-11T08:52:14.149Z,81.70
2022-09-11T08:54:50.538Z,81.07
2022-09-11T08:57:24.830Z,81.63
2022-09-11T09:00:18.657Z,82.00
2022-09-11T09:02:57.310Z,81.64
2022-09-11T09:05:47.531Z,83.58
2022-09-11T09:09:01.171Z,80.11
2022-09-11T09:11:30.669Z,81.86
2022-09-11T09:14:41.996Z,82.07
2022-09-11T09:17:16.895Z,80.36
2022-09-11T09:20:16.433Z,80.08
2022-09-11T09:23:01.878Z,81.15
2022-09-11T09:25:38.201Z,79.75
2022-09-11T09:28:25.469Z,78.40
2022-09-11T09:31:01.777Z,78.57
2022-09-11T09:33:45.845Z,78.86
2022-09-11T09:36:20.847Z,79.59
2022-09-11T09:39:14.125Z,80.44
2022-09-11T09:41:54.374Z,78.55
2022-09-11T09:44:57.967Z,76.56
2022-09-11T09:47:24.429Z,78.82
2022-09-11T09:49:52.376Z,77.10
2022-09-11T09:52:26.787Z,76.29
2022-09-11T09:54:56.991Z,77.79
2022-09-11T09:57:26.387Z,78.39
2022-09-11T10:00:05.459Z,77.56
2022-09-11T10:02:58.596Z,77.71
2022-09-11T10:05:41.474Z,77.77
2022-09-11T10:08:37.651Z,76.97
2022-09-11T10:11:06.689Z,77.65
2022-09-11T10:13:55.484Z,75.64
2022-09-11T10:16:25.766Z,76.13
2022-09-11T10:18:53.471Z,75.46
2022-09-11T10:21:33.333Z,76.02
2022-09-11T10:24:30.075Z,76.77
2022-09-11T10:26:59.102Z,76.30
2022-09-11T10:29:30.009Z,74.90
2022-09-11T10:32:05.487Z,75.47
2022-09-11T10:34:40.467Z,74.00
2022-09-11T10:37:15.175Z,77.97
2022-09-11T10:39:46.369Z,77.66
2022-09-11T10:42:27.541Z,78.10
2022-09-11T10:45:05.799Z,76.99
2022-09-11T10:47:37.328Z,76.54
2022-09-11T10:50:34.455Z,76.67
2022-09-11T10:53:19.717Z,76.77
2022-09-11T10:56:00.129Z,75.89
2022-09-11T10:58:42.351Z,71.79
2022-09-11T11:01:09.966Z,74.64
2022-09-11T11:03:36.800Z,75.23
2022-09-11T11:06:34.865Z,74.27
2022-09-11T11:09:47.972Z,72.66
2022-09-11T11:12:31.949Z,73.78
2022-09-11T11:15:30.272Z,71.06
2022-09-11T11:18:12.211Z,72.96
2022-09-11T11:20:56.991Z,71.70
2022-09-11T11:23:54.365Z,70.61
2022-09-11T11:26:23.926Z,69.18
2022-09-11T11:29:16.154Z,69.12
2022-09-11T11:32:01.450Z,70.72
2022-09-11T11:35:09.486Z,69.69
2022-09-11T11:37:48.702Z,70.36
2022-09-11T11:40:46.178Z,68.35
2022-09-11T11:43:17.475Z,68.79
2022-09-11T11:45:57.519Z,67.64
2022-09-11T11:48:36.937Z,66.53
2022-09-11T11:51:07.555Z,62.63
2022-09-11T11:53:44.921Z,63.95
2022-09-11T11:56:49.326Z,66.96
2022-09-11T11:59:45.730Z,65.23
2022-09-11T12:02:21.930Z,68.75
2022-09-11T12:05:05.461Z,69.48
2022-09-11T12:07:38.922Z,68.29
2022-09-11T12:10:08.468Z,68.04
2022-09-11T12:12:47.652Z,66.65
2022-09-11T12:15:19.734Z,66.12
2022-09-11T12:18:23.897Z,66.39
2022-09-11T12:20:51.341Z,67.75
2022-09-11T12:23:30.027Z,68.06
2022-09-11T12:26:24.888Z,68.86
2022-09-11T12:29:20.357Z,68.68
2022-09-11T12:31:51.801Z,67.36
2022-09-11T12:34:39.245Z,66.27
2022-09-11T12:37:12.520Z,67.33
2022-09-11T12:39:50.363Z,67.25
2022-09-11T12:42:22.966Z,66.43
2022-09-11T12:44:49.290Z,66.35
2022-09-11T12:47:24.240Z,66.25
2022-09-11T12:49:55.052Z,64.26
2022-09-11T12:52:30.387Z,65.39
2022-09-11T12:55:04.406Z,64.99
2022-09-11T12:57:38.258Z,64.25
2022-09-11T13:00:41.231Z,64.36
2022-09-11T13:03:19.366Z,63.05
2022-09-11T13:06:07.586Z,64.48
2022-09-11T13:08:59.960Z,61.85
2022-09-11T13:11:38.338Z,63.03
2022-09-11T13:14:30.843Z,60.59
2022-09-11T13:17:15.110Z,60.71
2022-09-11T13:19:43.627Z,59.38
2022-09-11T13:22:23.826Z,60.75
2022-09-11T13:24:51.464Z,61.51
2022-09-11T13:27:28.125Z,59.81
2022-09-11T13:29:58.100Z,64.11
2022-09-11T13:32:35.912Z,58.80
2022-09-11T13:35:10.943Z,61.14
2022-09-11T13:37:58.363Z,60.04
2022-09-11T13:40:35.153Z,59.61
2022-09-11T13:43:02.334Z,60.08
2022-09-11T13:45:28.856Z,58.69
2022-09-11T13:47:58.326Z,59.04
2022-09-11T13:50:25.198Z,56.56
2022-09-11T13:52:53.894Z,57.49
2022-09-11T13:55:27.059Z,59.40
2022-09-11T13:58:02.842Z,60.54
2022-09-11T14:00:50.482Z,61.03
2022-09-11T14:03:22.209Z,60.32
2022-09-11T14:05:51.267Z,61.14
2022-09-11T14:08:27.014Z,57.54
2022-09-11T14:10:56.913Z,55.30
2022-09-11T14:13:35.622Z,57.47
2022-09-11T14:16:15.416Z,56.44
2022-09-11T14:19:11.179Z,56.81
2022-09-11T14:21:40.497Z,55.67
2022-09-11T14:24:26.511Z,56.02
2022-09-11T14:26:58.836Z,57.16
2022-09-11T14:29:36.770Z,56.96
2022-09-11T14:32:29.724Z,56.92
2022-09-11T14:34:58.701Z,57.83
2022-09-11T14:37:28.142Z,59.91
2022-09-11T14:40:18.708Z,57.11
2022-09-11T14:42:47.398Z,56.62
2022-09-11T14:45:28.106Z,55.43
2022-09-11T14:47:54.542Z,54.98
2022-09-11T14:50:21.291Z,57.32
2022-09-11T14:53:01.743Z,56.39
2022-09-11T14:55:28.255Z,56.98
2022-09-11T14:57:54.737Z,56.48
2022-09-11T15:00:21.479Z,56.30
2022-09-11T15:02:52.024Z,55.58
2022-09-11T15:05:21.644Z,56.95
2022-09-11T15:07:48.992Z,56.54
2022-09-11T15:10:15.778Z,56.51
2022-09-11T15:12:42.848Z,56.42
2022-09-11T15:15:09.661Z,54.49
2022-09-11T15:17:36.463Z,55.80
2022-09-11T15:20:04.768Z,55.74
2022-09-11T15:22:31.506Z,55.67
2022-09-11T15:24:59.899Z,56.12
2022-09-11T15:27:26.430Z,55.95
2022-09-11T15:29:53.267Z,56.68
2022-09-11T15:32:21.090Z,56.49
2022-09-11T15:34:47.888Z,57.45
2022-09-11T15:37:16.809Z,58.12
2022-09-11T15:39:43.740Z,56.47
2022-09-11T15:42:10.423Z,56.95
2022-09-11T15:44:37.478Z,57.51
2022-09-11T15:47:04.633Z,57.67
2022-09-11T15:49:31.765Z,58.21
2022-09-11T15:51:59.703Z,58.10
2022-09-11T15:54:26.960Z,57.77
2022-09-11T15:56:53.558Z,58.32
2022-09-11T15:59:20.653Z,57.93
2022-09-11T16:01:47.471Z,58.52
2022-09-11T16:04:18.585Z,57.44
2022-09-11T16:06:47.794Z,58.65
2022-09-11T16:09:21.301Z,59.20
2022-09-11T16:11:50.372Z,58.53
2022-09-11T16:14:29.403Z,59.18
2022-09-11T16:16:57.909Z,59.00
2022-09-11T16:19:28.282Z,58.42
2022-09-11T16:21:56.991Z,59.28
2022-09-11T16:24:25.726Z,59.68
2022-09-11T16:26:56.458Z,58.55
2022-09-11T16:29:25.533Z,57.13
2022-09-11T16:31:55.402Z,58.07
2022-09-11T16:34:22.151Z,57.14
2022-09-11T16:36:49.850Z,55.98
2022-09-11T16:39:19.466Z,57.72
2022-09-11T16:41:46.024Z,58.25
2022-09-11T16:44:14.402Z,57.25
2022-09-11T16:46:43.885Z,58.29
2022-09-11T16:49:15.820Z,59.23
2022-09-11T16:51:44.010Z,59.48
2022-09-11T16:54:11.349Z,57.71
2022-09-11T16:56:39.062Z,57.40
2022-09-11T16:59:09.095Z,57.90
2022-09-11T17:01:36.870Z,58.77
2022-09-11T17:04:04.391Z,57.49
2022-09-11T17:06:32.079Z,59.02
2022-09-11T17:09:00.239Z,58.53
2022-09-11T17:11:28.361Z,58.64
2022-09-11T17:13:54.904Z,59.27
2022-09-11T17:16:25.667Z,60.38
2022-09-11T17:18:54.366Z,63.74
2022-09-11T17:21:23.987Z,65.98
2022-09-11T17:23:52.523Z,68.08
2022-09-11T17:26:19.044Z,68.79
2022-09-11T17:28:47.675Z,69.50
2022-09-11T17:31:16.267Z,70.24
2022-09-11T17:33:45.417Z,71.41
2022-09-11T17:36:17.232Z,71.71
2022-09-11T17:38:45.591Z,71.80
2022-09-11T17:41:12.358Z,72.64
2022-09-11T17:43:39.110Z,72.99
2022-09-11T17:46:11.042Z,73.20
2022-09-11T17:48:39.598Z,73.28
2022-09-11T17:51:17.822Z,73.53
2022-09-11T17:53:48.558Z,73.00
2022-09-11T17:56:18.051Z,74.11
2022-09-11T17:58:45.422Z,75.09
2022-09-11T18:01:16.786Z,75.88
2022-09-11T18:03:43.755Z,76.36
2022-09-11T18:06:22.148Z,76.86
2022-09-11T18:08:49.614Z,76.24
2022-09-11T18:11:15.998Z,76.49
2022-09-11T18:13:43.839Z,76.71
2022-09-11T18:16:11.594Z,77.21
2022-09-11T18:18:39.400Z,78.20
2022-09-11T18:21:10.493Z,78.39
2022-09-11T18:23:45.143Z,78.14
2022-09-11T18:26:26.957Z,77.79
2022-09-11T18:29:00.086Z,78.54
2022-09-11T18:31:30.243Z,78.85
2022-09-11T18:34:00.067Z,78.24
2022-09-11T18:36:28.966Z,80.16
2022-09-11T18:38:57.542Z,80.25
2022-09-11T18:41:24.539Z,80.60
2022-09-11T18:43:54.952Z,81.50
2022-09-11T18:46:22.049Z,81.88
2022-09-11T18:48:50.250Z,81.26
2022-09-11T18:51:17.879Z,81.96
2022-09-11T18:53:47.402Z,81.65
2022-09-11T18:56:14.217Z,81.75
2022-09-11T18:58:40.946Z,81.98
2022-09-11T19:01:11.415Z,82.62
2022-09-11T19:03:44.441Z,82.22
2022-09-11T19:06:17.774Z,82.76
2022-09-11T19:08:49.167Z,82.84
2022-09-11T19:11:23.071Z,82.57
2022-09-11T19:13:51.657Z,82.49
2022-09-11T19:16:20.428Z,82.43
2022-09-11T19:18:47.883Z,81.99
2022-09-11T19:21:17.766Z,81.66
2022-09-11T19:23:46.773Z,82.92
2022-09-11T19:26:19.277Z,82.33
2022-09-11T19:28:47.057Z,82.88
2022-09-11T19:31:15.288Z,83.20
2022-09-11T19:33:44.385Z,82.53
2022-09-11T19:36:16.887Z,82.01
2022-09-11T19:38:45.499Z,81.27
2022-09-11T19:41:15.090Z,82.90
2022-09-11T19:43:43.648Z,82.70
2022-09-11T19:46:15.914Z,82.26
2022-09-11T19:48:44.194Z,82.46
2022-09-11T19:51:16.118Z,83.58
2022-09-11T19:53:43.148Z,83.33
2022-09-11T19:56:11.098Z,82.37
2022-09-11T19:58:40.848Z,84.24
2022-09-11T20:01:13.447Z,83.38
2022-09-11T20:03:42.651Z,83.61
2022-09-11T20:06:10.624Z,84.18
2022-09-11T20:08:38.019Z,84.67
2022-09-11T20:11:07.062Z,85.26
2022-09-11T20:13:37.437Z,85.73
2022-09-11T20:16:23.185Z,85.58
2022-09-11T20:18:53.746Z,85.71
2022-09-11T20:21:22.002Z,85.86
2022-09-11T20:23:52.630Z,86.70
2022-09-11T20:26:23.276Z,86.61
2022-09-11T20:28:56.910Z,86.02
2022-09-11T20:31:24.490Z,85.78
2022-09-11T20:33:50.949Z,86.07
2022-09-11T20:36:18.472Z,86.38
2022-09-11T20:38:53.415Z,86.62
2022-09-11T20:41:23.129Z,85.54
2022-09-11T20:43:49.964Z,85.82
2022-09-11T20:46:16.439Z,85.62
2022-09-11T20:48:42.865Z,85.81
2022-09-11T20:51:12.534Z,85.28
2022-09-11T20:53:41.699Z,83.62
2022-09-11T20:56:10.026Z,85.19
2022-09-11T20:58:37.109Z,85.05
2022-09-11T21:01:04.760Z,85.16
2022-09-11T21:03:31.478Z,84.73
2022-09-11T21:05:58.351Z,85.53
2022-09-11T21:08:27.322Z,85.50
2022-09-11T21:10:55.774Z,85.52
2022-09-11T21:13:22.147Z,86.03
2022-09-11T21:15:48.513Z,87.32
2022-09-11T21:18:15.465Z,87.48
2022-09-11T21:20:42.917Z,86.95
2022-09-11T21:23:12.398Z,86.78
2022-09-11T21:25:40.195Z,87.41
2022-09-11T21:28:10.557Z,88.04
2022-09-11T21:30:43.182Z,88.89
2022-09-11T21:33:09.562Z,88.55
2022-09-11T21:35:42.371Z,88.33
2022-09-11T21:38:09.748Z,88.51
2022-09-11T21:40:36.138Z,89.39
2022-09-11T21:43:04.343Z,90.44
2022-09-11T21:45:32.819Z,89.27
2022-09-11T21:47:59.239Z,89.35
2022-09-11T21:50:26.647Z,88.98
2022-09-11T21:52:54.508Z,88.30
2022-09-11T21:55:21.446Z,88.56
2022-09-11T21:57:47.887Z,88.16
2022-09-11T22:00:14.839Z,88.27
2022-09-11T22:02:41.273Z,88.29
2022-09-11T22:05:08.888Z,88.21
2022-09-11T22:07:35.409Z,87.50
2022-09-11T22:10:02.278Z,85.71
2022-09-11T22:12:29.867Z,85.29
2022-09-11T22:14:56.239Z,85.26
2022-09-11T22:17:22.897Z,85.31
2022-09-11T22:19:49.293Z,85.87
2022-09-11T22:22:16.127Z,86.96
2022-09-11T22:24:43.716Z,86.02
2022-09-11T22:27:10.234Z,86.87
2022-09-11T22:29:37.314Z,87.00
2022-09-11T22:32:06.981Z,86.92
2022-09-11T22:34:36.872Z,87.23
2022-09-11T22:37:06.142Z,86.76
2022-09-11T22:39:32.526Z,87.44
2022-09-11T22:42:01.851Z,87.09
2022-09-11T22:44:29.266Z,86.35
2022-09-11T22:46:55.678Z,85.74
2022-09-11T22:49:22.164Z,87.23
2022-09-11T22:51:48.599Z,87.58
2022-09-11T22:54:15.646Z,88.97
2022-09-11T22:56:42.441Z,89.50
2022-09-11T22:59:08.851Z,90.40
2022-09-11T23:01:36.454Z,91.06
2022-09-11T23:04:03.842Z,91.47
2022-09-11T23:06:49.192Z,91.46
2022-09-11T23:09:16.935Z,90.12
2022-09-11T23:11:45.236Z,90.62
2022-09-11T23:14:14.320Z,90.75
2022-09-11T23:16:41.121Z,90.62
2022-09-11T23:19:08.642Z,90.42
2022-09-11T23:21:35.893Z,90.17
2022-09-11T23:24:04.654Z,90.78
2022-09-11T23:26:31.130Z,90.71
2022-09-11T23:28:58.005Z,89.67
2022-09-11T23:31:28.732Z,89.75
2022-09-11T23:33:58.005Z,88.32
2022-09-11T23:36:25.013Z,88.13
2022-09-11T23:38:52.110Z,88.02
2022-09-11T23:41:19.205Z,88.97
2022-09-11T23:43:46.073Z,88.71
2022-09-11T23:46:13.234Z,87.65
2022-09-11T23:48:40.247Z,87.04
2022-09-11T23:51:08.546Z,86.93
2022-09-11T23:53:34.922Z,86.99
2022-09-11T23:56:01.468Z,87.32
2022-09-11T23:58:27.859Z,87.90
